createdAt,value
2022-09-13T00:00:20.588Z,11.07
2022-09-13T00:00:55.038Z,15.38
2022-09-13T00:01:30.778Z,12.02
2022-09-13T00:02:05.747Z,11.43
2022-09-13T00:02:40.065Z,10.93
2022-09-13T00:03:13.805Z,11.80
2022-09-13T00:03:47.807Z,14.63
2022-09-13T00:04:22.830Z,11.38
2022-09-13T00:04:57.012Z,13.32
2022-09-13T00:05:31.656Z,10.55
2022-09-13T00:06:11.200Z,10.27
2022-09-13T00:06:45.779Z,10.00
2022-09-13T00:07:21.111Z,12.63
2022-09-13T00:07:54.945Z,11.13
2022-09-13T00:08:29.020Z,12.63
2022-09-13T00:09:04.105Z,11.40
2022-09-13T00:09:37.925Z,11.45
2022-09-13T00:10:12.111Z,11.20
2022-09-13T00:10:47.840Z,12.70
2022-09-13T00:11:24.212Z,10.20
2022-09-13T00:11:58.881Z,11.20
2022-09-13T00:12:33.098Z,10.75
2022-09-13T00:13:07.143Z,12.07
2022-09-13T00:13:41.971Z,10.73
2022-09-13T00:14:17.276Z,10.20
2022-09-13T00:14:51.399Z,8.63
2022-09-13T00:15:26.452Z,11.70
2022-09-13T00:16:04.538Z,11.73
2022-09-13T00:16:40.666Z,13.25
2022-09-13T00:17:15.076Z,10.77
2022-09-13T00:17:50.517Z,14.57
2022-09-13T00:18:24.643Z,11.00
2022-09-13T00:18:58.565Z,11.50
2022-09-13T00:19:33.326Z,12.15
2022-09-13T00:20:09.386Z,10.23
2022-09-13T00:20:42.372Z,11.98
2022-09-13T00:21:17.564Z,12.55
2022-09-13T00:21:52.795Z,10.77
2022-09-13T00:22:28.142Z,12.70
2022-09-13T00:23:03.441Z,10.60
2022-09-13T00:23:37.369Z,14.45
2022-09-13T00:24:11.681Z,10.27
2022-09-13T00:24:47.239Z,11.05
2022-09-13T00:25:22.103Z,15.02
2022-09-13T00:25:55.696Z,11.07
2022-09-13T00:26:30.884Z,11.30
2022-09-13T00:27:06.506Z,13.38
2022-09-13T00:27:41.126Z,11.80
2022-09-13T00:28:16.874Z,11.63
2022-09-13T00:28:52.392Z,11.85
2022-09-13T00:29:27.009Z,14.07
2022-09-13T00:30:01.633Z,12.88
2022-09-13T00:30:37.463Z,12.23
2022-09-13T00:31:12.101Z,13.93
2022-09-13T00:31:47.213Z,12.80
2022-09-13T00:32:22.771Z,10.60
2022-09-13T00:32:57.185Z,12.95
2022-09-13T00:33:30.570Z,11.27
2022-09-13T00:34:06.389Z,13.32
2022-09-13T00:34:39.980Z,12.13
2022-09-13T00:35:13.967Z,10.52
2022-09-13T00:35:49.397Z,14.50
2022-09-13T00:36:23.338Z,10.95
2022-09-13T00:36:58.162Z,12.05
2022-09-13T00:37:31.893Z,12.90
2022-09-13T00:38:05.209Z,11.60
2022-09-13T00:38:39.160Z,15.43
2022-09-13T00:39:14.431Z,14.13
2022-09-13T00:39:49.930Z,13.82
2022-09-13T00:40:26.531Z,14.02
2022-09-13T00:41:00.259Z,11.15
2022-09-13T00:41:34.309Z,12.73
2022-09-13T00:42:11.797Z,12.45
2022-09-13T00:42:47.010Z,11.93
2022-09-13T00:43:21.722Z,14.68
2022-09-13T00:43:57.677Z,16.30
2022-09-13T00:44:50.621Z,13.35
2022-09-13T00:45:24.907Z,9.60
2022-09-13T00:46:01.235Z,12.43
2022-09-13T00:46:36.858Z,12.82
2022-09-13T00:47:13.546Z,11.77
2022-09-13T00:47:49.342Z,13.82
2022-09-13T00:48:24.360Z,11.93
2022-09-13T00:49:01.763Z,15.57
2022-09-13T00:49:39.048Z,15.82
2022-09-13T00:50:16.172Z,11.60
2022-09-13T00:50:51.793Z,12.88
2022-09-13T00:51:26.930Z,13.52
2022-09-13T00:52:01.691Z,12.45
2022-09-13T00:52:37.217Z,14.80
2022-09-13T00:53:14.119Z,16.30
2022-09-13T00:53:50.320Z,12.65
2022-09-13T00:54:26.022Z,10.95
2022-09-13T00:55:03.295Z,14.05
2022-09-13T00:55:38.837Z,11.90
2022-09-13T00:56:15.785Z,11.23
2022-09-13T00:56:52.558Z,12.38
2022-09-13T00:57:26.826Z,14.75
2022-09-13T00:58:03.764Z,13.98
2022-09-13T00:58:39.311Z,14.65
2022-09-13T00:59:15.472Z,12.57
2022-09-13T00:59:52.534Z,15.00
2022-09-13T01:00:29.132Z,15.43
2022-09-13T01:01:05.626Z,12.75
2022-09-13T01:01:45.542Z,16.08
2022-09-13T01:02:22.999Z,11.70
2022-09-13T01:02:58.581Z,15.63
2022-09-13T01:03:34.071Z,15.68
2022-09-13T01:04:12.493Z,12.30
2022-09-13T01:04:46.966Z,14.88
2022-09-13T01:05:24.110Z,16.33
2022-09-13T01:05:59.598Z,14.73
2022-09-13T01:06:37.923Z,16.05
2022-09-13T01:07:13.851Z,14.88
2022-09-13T01:07:47.934Z,14.68
2022-09-13T01:08:24.228Z,15.20
2022-09-13T01:09:04.927Z,11.23
2022-09-13T01:09:40.487Z,12.00
2022-09-13T01:10:15.703Z,13.75
2022-09-13T01:10:51.635Z,14.25
2022-09-13T01:11:28.507Z,11.85
2022-09-13T01:12:05.793Z,13.75
2022-09-13T01:12:44.892Z,13.80
2022-09-13T01:13:20.369Z,15.88
2022-09-13T01:13:55.778Z,13.40
2022-09-13T01:14:29.627Z,14.90
2022-09-13T01:15:06.419Z,12.57
2022-09-13T01:15:40.866Z,10.98
2022-09-13T01:16:33.563Z,11.75
2022-09-13T01:17:08.037Z,12.27
2022-09-13T01:17:44.473Z,12.98
2022-09-13T01:18:18.901Z,15.65
2022-09-13T01:18:54.503Z,17.40
2022-09-13T01:19:29.658Z,14.20
2022-09-13T01:20:04.355Z,13.45
2022-09-13T01:20:48.052Z,14.68
2022-09-13T01:21:50.564Z,13.18
2022-09-13T01:22:45.063Z,15.02
2022-09-13T01:23:27.175Z,14.05
2022-09-13T01:24:16.948Z,13.15
2022-09-13T01:25:06.979Z,12.13
2022-09-13T01:26:43.301Z,14.55
2022-09-13T01:27:31.742Z,14.63
2022-09-13T01:28:21.862Z,10.85
2022-09-13T01:29:23.395Z,13.63
2022-09-13T01:30:10.719Z,12.95
2022-09-13T01:30:49.412Z,12.63
2022-09-13T01:31:28.673Z,15.30
2022-09-13T01:32:06.913Z,12.65
2022-09-13T01:32:50.985Z,14.43
2022-09-13T01:33:50.561Z,15.52
2022-09-13T01:34:31.858Z,12.77
2022-09-13T01:35:14.607Z,13.02
2022-09-13T01:36:18.780Z,11.80
2022-09-13T01:37:16.707Z,10.85
2022-09-13T01:37:55.051Z,14.00
2022-09-13T01:38:50.143Z,11.73
2022-09-13T01:39:29.480Z,12.85
2022-09-13T01:40:12.701Z,12.90
2022-09-13T01:40:52.495Z,10.48
2022-09-13T01:41:36.013Z,10.25
2022-09-13T01:42:19.421Z,11.95
2022-09-13T01:43:06.014Z,12.52
2022-09-13T01:43:44.540Z,11.02
2022-09-13T01:44:27.884Z,12.05
2022-09-13T01:45:05.931Z,16.45
2022-09-13T01:45:50.653Z,9.98
2022-09-13T01:46:28.170Z,10.73
2022-09-13T01:47:06.505Z,9.63
2022-09-13T01:47:43.500Z,16.52
2022-09-13T01:48:20.731Z,13.90
2022-09-13T01:48:56.824Z,11.90
2022-09-13T01:49:33.360Z,10.70
2022-09-13T01:50:15.395Z,14.95
2022-09-13T01:50:52.293Z,10.65
2022-09-13T01:51:29.291Z,11.68
2022-09-13T01:52:06.357Z,12.73
2022-09-13T01:52:44.571Z,14.43
2022-09-13T01:53:24.228Z,8.82
2022-09-13T01:54:04.966Z,18.00
2022-09-13T01:54:42.788Z,14.50
2022-09-13T01:55:23.998Z,16.10
2022-09-13T01:56:02.650Z,14.77
2022-09-13T01:56:39.390Z,14.70
2022-09-13T01:57:15.615Z,20.95
2022-09-13T01:57:54.899Z,17.88
2022-09-13T01:58:30.277Z,17.80
2022-09-13T01:59:07.069Z,18.02
2022-09-13T01:59:46.716Z,21.05
2022-09-13T02:00:26.366Z,23.13
2022-09-13T02:01:04.902Z,24.77
2022-09-13T02:01:43.013Z,23.67
2022-09-13T02:02:20.068Z,30.95
2022-09-13T02:02:58.625Z,26.50
2022-09-13T02:03:37.379Z,23.48
2022-09-13T02:04:14.035Z,27.27
2022-09-13T02:04:49.892Z,31.92
2022-09-13T02:05:26.863Z,31.00
2022-09-13T02:06:02.475Z,32.00
2022-09-13T02:06:38.423Z,37.72
2022-09-13T02:07:14.957Z,31.38
2022-09-13T02:07:52.719Z,38.33
2022-09-13T02:08:29.818Z,33.15
2022-09-13T02:09:05.425Z,40.03
2022-09-13T02:09:42.455Z,37.17
2022-09-13T02:10:18.476Z,38.55
2022-09-13T02:10:56.169Z,35.45
2022-09-13T02:11:29.233Z,39.30
2022-09-13T02:12:06.685Z,44.40
2022-09-13T02:12:44.821Z,41.05
2022-09-13T02:13:19.948Z,42.67
2022-09-13T02:13:59.097Z,41.28
2022-09-13T02:14:36.194Z,41.55
2022-09-13T02:15:11.997Z,40.63
2022-09-13T02:15:48.703Z,45.47
2022-09-13T02:16:28.669Z,38.65
2022-09-13T02:17:04.847Z,45.15
2022-09-13T02:17:41.373Z,36.85
2022-09-13T02:18:18.853Z,43.78
2022-09-13T02:18:57.152Z,37.65
2022-09-13T02:19:36.146Z,39.13
2022-09-13T02:20:13.740Z,39.53
2022-09-13T02:20:51.996Z,41.17
2022-09-13T02:21:29.081Z,37.47
2022-09-13T02:22:03.196Z,39.53
2022-09-13T02:22:39.821Z,38.20
2022-09-13T02:23:15.082Z,40.28
2022-09-13T02:23:50.729Z,36.50
2022-09-13T02:24:27.359Z,35.30
2022-09-13T02:25:02.133Z,40.28
2022-09-13T02:25:38.079Z,37.80
2022-09-13T02:26:15.308Z,36.97
2022-09-13T02:26:53.090Z,42.63
2022-09-13T02:27:28.873Z,35.90
2022-09-13T02:28:07.362Z,36.35
2022-09-13T02:28:43.366Z,38.05
2022-09-13T02:29:20.609Z,35.88
2022-09-13T02:29:58.106Z,37.75
2022-09-13T02:30:33.570Z,35.40
2022-09-13T02:31:09.901Z,37.42
2022-09-13T02:31:48.006Z,57.90
2022-09-13T02:32:23.890Z,32.95
2022-09-13T02:32:59.330Z,37.95
2022-09-13T02:33:36.531Z,46.15
2022-09-13T02:34:12.943Z,31.17
2022-09-13T02:34:49.964Z,36.25
2022-09-13T02:35:27.781Z,28.85
2022-09-13T02:36:03.399Z,28.45
2022-09-13T02:36:38.350Z,30.13
2022-09-13T02:37:13.690Z,24.85
2022-09-13T02:37:50.413Z,26.42
2022-09-13T02:38:26.177Z,30.40
2022-09-13T02:39:02.442Z,23.75
2022-09-13T02:39:38.635Z,23.13
2022-09-13T02:40:15.815Z,24.10
2022-09-13T02:40:56.454Z,23.20
2022-09-13T02:41:34.485Z,23.17
2022-09-13T02:42:14.264Z,25.45
2022-09-13T02:42:50.075Z,23.58
2022-09-13T02:43:26.690Z,25.70
2022-09-13T02:44:05.530Z,23.67
2022-09-13T02:44:41.871Z,25.45
2022-09-13T02:45:16.376Z,22.23
2022-09-13T02:45:54.202Z,21.27
2022-09-13T02:46:39.123Z,19.65
2022-09-13T02:47:24.700Z,19.30
2022-09-13T02:48:02.781Z,20.65
2022-09-13T02:48:42.308Z,23.23
2022-09-13T02:49:25.435Z,17.00
2022-09-13T02:50:06.176Z,16.08
2022-09-13T02:50:46.896Z,16.52
2022-09-13T02:51:27.692Z,17.33
2022-09-13T02:52:10.006Z,17.20
2022-09-13T02:52:47.802Z,16.80
2022-09-13T02:53:27.561Z,17.60
2022-09-13T02:54:08.543Z,16.80
2022-09-13T02:54:45.552Z,17.13
2022-09-13T02:55:22.046Z,18.10
2022-09-13T02:56:01.336Z,20.80
2022-09-13T02:56:39.679Z,14.82
2022-09-13T02:57:16.949Z,16.65
2022-09-13T02:57:59.117Z,17.55
2022-09-13T02:58:36.777Z,17.92
2022-09-13T02:59:14.496Z,19.40
2022-09-13T02:59:49.147Z,14.45
2022-09-13T03:00:27.068Z,16.48
2022-09-13T03:01:01.995Z,19.67
2022-09-13T03:01:37.423Z,16.98
2022-09-13T03:02:14.268Z,16.90
2022-09-13T03:02:51.619Z,16.17
2022-09-13T03:03:25.870Z,14.25
2022-09-13T03:04:00.667Z,15.95
2022-09-13T03:04:34.324Z,14.65
2022-09-13T03:05:09.581Z,52.78
2022-09-13T03:05:45.191Z,59.03
2022-09-13T03:06:24.209Z,289.08
2022-09-13T03:06:58.761Z,148.80
2022-09-13T03:07:33.852Z,32.88
2022-09-13T03:08:11.157Z,18.35
2022-09-13T03:08:44.953Z,16.30
2022-09-13T03:09:20.688Z,15.95
2022-09-13T03:09:56.267Z,15.35
2022-09-13T03:10:33.812Z,21.02
2022-09-13T03:11:12.037Z,16.00
2022-09-13T03:11:58.769Z,15.90
2022-09-13T03:12:41.865Z,14.05
2022-09-13T03:13:33.712Z,14.55
2022-09-13T03:14:19.293Z,27.30
2022-09-13T03:14:57.455Z,55.25
2022-09-13T03:15:37.419Z,24.52
2022-09-13T03:16:22.091Z,23.85
2022-09-13T03:17:05.259Z,18.55
2022-09-13T03:17:46.299Z,16.45
2022-09-13T03:18:30.659Z,14.48
2022-09-13T03:19:15.415Z,14.43
2022-09-13T03:20:05.825Z,15.90
2022-09-13T03:20:53.128Z,15.60
2022-09-13T03:21:35.262Z,13.90
2022-09-13T03:22:20.644Z,14.82
2022-09-13T03:23:07.640Z,60.88
2022-09-13T03:23:46.201Z,175.88
2022-09-13T03:24:25.452Z,259.52
2022-09-13T03:25:04.625Z,89.05
2022-09-13T03:25:56.933Z,17.42
2022-09-13T03:26:39.135Z,13.68
2022-09-13T03:27:17.675Z,13.63
2022-09-13T03:27:55.036Z,18.38
2022-09-13T03:28:33.324Z,15.48
2022-09-13T03:29:12.783Z,17.70
2022-09-13T03:29:51.076Z,13.05
2022-09-13T03:30:26.187Z,14.07
2022-09-13T03:31:04.335Z,14.00
2022-09-13T03:31:45.710Z,14.05
2022-09-13T03:32:23.211Z,17.65
2022-09-13T03:33:01.283Z,17.08
2022-09-13T03:33:43.311Z,20.95
2022-09-13T03:34:22.293Z,15.13
2022-09-13T03:35:03.645Z,12.73
2022-09-13T03:35:41.906Z,12.38
2022-09-13T03:36:18.789Z,14.35
2022-09-13T03:36:56.626Z,15.68
2022-09-13T03:37:34.999Z,27.45
2022-09-13T03:38:11.445Z,115.70
2022-09-13T03:38:47.485Z,204.63
2022-09-13T03:39:27.993Z,300.38
2022-09-13T03:40:05.559Z,26.33
2022-09-13T03:40:43.160Z,16.58
2022-09-13T03:41:21.207Z,19.52
2022-09-13T03:41:58.736Z,16.00
2022-09-13T03:42:35.506Z,15.70
2022-09-13T03:43:13.809Z,15.10
2022-09-13T03:43:51.125Z,18.08
2022-09-13T03:44:27.360Z,22.15
2022-09-13T03:45:02.390Z,16.33
2022-09-13T03:45:38.776Z,15.68
2022-09-13T03:46:15.543Z,14.48
2022-09-13T03:46:51.992Z,17.30
2022-09-13T03:47:27.206Z,17.83
2022-09-13T03:48:02.481Z,13.43
2022-09-13T03:48:39.189Z,15.32
2022-09-13T03:49:16.485Z,15.23
2022-09-13T03:49:50.980Z,14.90
2022-09-13T03:50:24.949Z,18.45
2022-09-13T03:50:59.509Z,15.85
2022-09-13T03:51:34.696Z,13.45
2022-09-13T03:52:08.463Z,14.30
2022-09-13T03:52:46.499Z,19.75
2022-09-13T03:53:23.249Z,16.08
2022-09-13T03:54:00.759Z,16.77
2022-09-13T03:54:39.206Z,11.68
2022-09-13T03:55:13.507Z,12.55
2022-09-13T03:55:52.321Z,11.40
2022-09-13T03:56:26.439Z,16.73
2022-09-13T03:57:10.943Z,17.27
2022-09-13T03:57:45.678Z,16.15
2022-09-13T03:58:21.054Z,12.60
2022-09-13T03:58:55.461Z,14.45
2022-09-13T03:59:31.382Z,12.73
2022-09-13T04:00:06.623Z,15.77
2022-09-13T04:00:46.710Z,12.00
2022-09-13T04:01:22.510Z,12.43
2022-09-13T04:01:56.147Z,15.13
2022-09-13T04:02:32.116Z,16.70
2022-09-13T04:03:10.718Z,15.70
2022-09-13T04:03:46.941Z,14.38
2022-09-13T04:04:22.635Z,14.32
2022-09-13T04:04:57.073Z,15.40
2022-09-13T04:05:31.202Z,14.43
2022-09-13T04:06:06.096Z,13.50
2022-09-13T04:06:40.700Z,14.88
2022-09-13T04:07:15.453Z,14.90
2022-09-13T04:07:51.193Z,15.63
2022-09-13T04:08:25.266Z,14.13
2022-09-13T04:09:01.082Z,13.43
2022-09-13T04:09:35.015Z,13.00
2022-09-13T04:10:13.733Z,14.35
2022-09-13T04:10:51.604Z,13.85
2022-09-13T04:11:25.899Z,15.27
2022-09-13T04:12:01.401Z,14.73
2022-09-13T04:12:35.961Z,14.63
2022-09-13T04:13:10.060Z,16.48
2022-09-13T04:13:45.145Z,16.67
2022-09-13T04:14:20.277Z,19.77
2022-09-13T04:14:54.672Z,13.55
2022-09-13T04:15:31.051Z,47.15
2022-09-13T04:16:06.328Z,44.90
2022-09-13T04:16:41.946Z,19.77
2022-09-13T04:17:18.133Z,16.42
2022-09-13T04:17:51.806Z,15.00
2022-09-13T04:18:25.854Z,12.95
2022-09-13T04:19:01.832Z,16.75
2022-09-13T04:19:35.438Z,16.02
2022-09-13T04:20:11.548Z,16.13
2022-09-13T04:20:46.196Z,15.30
2022-09-13T04:21:20.288Z,15.77
2022-09-13T04:21:56.720Z,20.20
2022-09-13T04:22:32.144Z,15.18
2022-09-13T04:23:06.821Z,21.17
2022-09-13T04:23:41.876Z,18.33
2022-09-13T04:24:16.062Z,17.40
2022-09-13T04:24:49.926Z,16.30
2022-09-13T04:25:28.905Z,17.77
2022-09-13T04:26:02.991Z,15.35
2022-09-13T04:26:37.125Z,16.50
2022-09-13T04:27:12.330Z,15.50
2022-09-13T04:27:45.865Z,14.25
2022-09-13T04:28:20.161Z,19.17
2022-09-13T04:28:55.725Z,20.92
2022-09-13T04:29:30.466Z,17.40
2022-09-13T04:30:03.496Z,16.08
2022-09-13T04:30:42.583Z,17.95
2022-09-13T04:31:52.893Z,19.90
2022-09-13T04:32:28.064Z,18.63
2022-09-13T04:33:02.777Z,16.10
2022-09-13T04:33:37.417Z,18.60
2022-09-13T04:34:13.426Z,15.50
2022-09-13T04:34:48.423Z,15.63
2022-09-13T04:35:23.035Z,12.45
2022-09-13T04:36:00.513Z,15.60
2022-09-13T04:36:34.336Z,16.48
2022-09-13T04:37:08.181Z,18.30
2022-09-13T04:37:44.160Z,15.38
2022-09-13T04:38:18.811Z,16.17
2022-09-13T04:38:53.577Z,16.65
2022-09-13T04:39:29.399Z,18.95
2022-09-13T04:40:04.310Z,15.68
2022-09-13T04:40:40.196Z,15.68
2022-09-13T04:41:16.594Z,16.85
2022-09-13T04:41:52.623Z,13.20
2022-09-13T04:42:27.529Z,17.17
2022-09-13T04:43:02.231Z,18.08
2022-09-13T04:43:36.391Z,16.88
2022-09-13T04:44:12.314Z,21.00
2022-09-13T04:44:45.894Z,16.98
2022-09-13T04:45:20.239Z,20.02
2022-09-13T04:45:56.561Z,17.02
2022-09-13T04:46:30.026Z,18.23
2022-09-13T04:47:05.457Z,15.85
2022-09-13T04:47:39.162Z,18.15
2022-09-13T04:48:12.243Z,23.80
2022-09-13T04:48:51.222Z,16.23
2022-09-13T04:49:27.260Z,18.88
2022-09-13T04:50:00.823Z,13.88
2022-09-13T04:50:38.923Z,16.10
2022-09-13T04:51:13.390Z,19.15
2022-09-13T04:51:47.569Z,22.42
2022-09-13T04:52:23.183Z,19.48
2022-09-13T04:52:57.827Z,17.23
2022-09-13T04:53:32.062Z,20.52
2022-09-13T04:54:09.948Z,18.20
2022-09-13T04:54:48.447Z,20.73
2022-09-13T04:55:22.483Z,16.95
2022-09-13T04:56:02.611Z,17.00
2022-09-13T04:56:37.596Z,17.17
2022-09-13T04:57:11.551Z,17.80
2022-09-13T04:57:46.652Z,23.40
2022-09-13T04:58:21.037Z,18.95
2022-09-13T04:58:55.802Z,18.92
2022-09-13T04:59:30.771Z,21.25
2022-09-13T05:00:05.720Z,30.10
2022-09-13T05:00:43.846Z,19.25
2022-09-13T05:01:17.970Z,23.17
2022-09-13T05:01:52.702Z,20.13
2022-09-13T05:02:27.553Z,19.73
2022-09-13T05:03:02.329Z,22.80
2022-09-13T05:03:37.499Z,19.40
2022-09-13T05:04:11.736Z,16.33
2022-09-13T05:04:49.519Z,38.33
2022-09-13T05:05:24.057Z,20.95
2022-09-13T05:05:58.515Z,15.88
2022-09-13T05:06:33.577Z,19.65
2022-09-13T05:07:07.727Z,18.48
2022-09-13T05:07:42.364Z,18.05
2022-09-13T05:08:17.514Z,16.52
2022-09-13T05:08:53.543Z,14.85
2022-09-13T05:09:27.990Z,16.88
2022-09-13T05:10:03.725Z,20.38
2022-09-13T05:10:38.371Z,19.50
2022-09-13T05:11:12.082Z,14.90
2022-09-13T05:11:46.865Z,18.00
2022-09-13T05:12:22.308Z,18.38
2022-09-13T05:12:58.580Z,17.13
2022-09-13T05:13:32.464Z,16.23
2022-09-13T05:14:06.552Z,15.80
2022-09-13T05:14:43.278Z,17.00
2022-09-13T05:15:17.724Z,18.27
2022-09-13T05:15:52.842Z,13.00
2022-09-13T05:16:29.959Z,21.63
2022-09-13T05:17:04.408Z,15.40
2022-09-13T05:17:38.294Z,19.67
2022-09-13T05:18:13.058Z,15.48
2022-09-13T05:18:47.428Z,15.65
2022-09-13T05:19:24.116Z,16.67
2022-09-13T05:19:59.668Z,17.35
2022-09-13T05:20:33.280Z,16.63
2022-09-13T05:21:09.157Z,19.58
2022-09-13T05:21:44.220Z,15.93
2022-09-13T05:22:19.457Z,18.15
2022-09-13T05:22:53.736Z,17.38
2022-09-13T05:23:28.726Z,15.15
2022-09-13T05:24:03.214Z,22.75
2022-09-13T05:24:37.086Z,18.70
2022-09-13T05:25:11.430Z,20.58
2022-09-13T05:25:48.464Z,16.35
2022-09-13T05:26:22.855Z,21.20
2022-09-13T05:27:01.261Z,22.73
2022-09-13T05:27:35.214Z,16.85
2022-09-13T05:28:11.067Z,18.65
2022-09-13T05:28:46.138Z,14.57
2022-09-13T05:29:22.418Z,18.70
2022-09-13T05:29:55.445Z,21.15
2022-09-13T05:30:29.114Z,15.73
2022-09-13T05:31:04.777Z,22.33
2022-09-13T05:31:40.120Z,15.32
2022-09-13T05:32:15.546Z,17.25
2022-09-13T05:32:48.594Z,16.88
2022-09-13T05:33:22.739Z,21.27
2022-09-13T05:34:00.028Z,16.10
2022-09-13T05:34:34.654Z,16.27
2022-09-13T05:35:10.844Z,17.55
2022-09-13T05:35:46.614Z,17.60
2022-09-13T05:36:21.330Z,19.65
2022-09-13T05:36:56.349Z,15.30
2022-09-13T05:37:33.558Z,17.33
2022-09-13T05:38:07.621Z,18.15
2022-09-13T05:38:43.396Z,17.05
2022-09-13T05:40:13.391Z,17.60
2022-09-13T05:40:48.452Z,17.85
2022-09-13T05:41:23.569Z,15.60
2022-09-13T05:41:59.676Z,16.83
2022-09-13T05:42:33.367Z,17.63
2022-09-13T05:43:07.768Z,16.30
2022-09-13T05:43:43.601Z,16.55
2022-09-13T05:44:17.200Z,13.73
2022-09-13T05:44:52.681Z,13.75
2022-09-13T05:45:26.536Z,12.70
2022-09-13T05:46:04.696Z,17.52
2022-09-13T05:46:40.425Z,17.25
2022-09-13T05:47:15.311Z,18.42
2022-09-13T05:47:52.063Z,15.73
2022-09-13T05:48:28.500Z,14.10
2022-09-13T05:49:03.592Z,14.27
2022-09-13T05:49:55.295Z,16.55
2022-09-13T05:50:57.307Z,15.55
2022-09-13T05:51:29.532Z,19.25
2022-09-13T05:52:04.910Z,13.00
2022-09-13T05:52:39.311Z,19.05
2022-09-13T05:53:13.776Z,16.48
2022-09-13T05:53:50.627Z,24.85
2022-09-13T05:54:25.876Z,26.90
2022-09-13T05:54:59.891Z,16.73
2022-09-13T05:55:34.817Z,18.80
2022-09-13T05:56:08.128Z,17.88
2022-09-13T05:56:42.285Z,18.08
2022-09-13T05:57:17.722Z,16.75
2022-09-13T05:57:51.928Z,14.93
2022-09-13T05:58:25.494Z,17.38
2022-09-13T05:59:01.260Z,18.95
2022-09-13T05:59:36.232Z,19.58
2022-09-13T06:00:11.061Z,15.25
2022-09-13T06:00:49.253Z,20.58
2022-09-13T06:01:24.216Z,21.38
2022-09-13T06:02:00.407Z,18.52
2022-09-13T06:02:34.561Z,16.52
2022-09-13T06:03:08.225Z,15.90
2022-09-13T06:03:44.036Z,18.95
2022-09-13T06:04:17.345Z,20.00
2022-09-13T06:04:54.177Z,23.52
2022-09-13T06:05:31.641Z,19.65
2022-09-13T06:06:08.903Z,17.58
2022-09-13T06:06:42.502Z,19.75
2022-09-13T06:07:16.605Z,22.55
2022-09-13T06:07:51.811Z,16.10
2022-09-13T06:08:26.902Z,23.05
2022-09-13T06:09:03.370Z,19.95
2022-09-13T06:09:38.058Z,21.92
2022-09-13T06:10:12.113Z,18.00
2022-09-13T06:10:56.313Z,18.38
2022-09-13T06:11:29.168Z,19.83
2022-09-13T06:12:06.187Z,18.73
2022-09-13T06:12:44.231Z,18.00
2022-09-13T06:13:18.864Z,16.73
2022-09-13T06:13:53.471Z,18.55
2022-09-13T06:14:27.433Z,16.45
2022-09-13T06:15:01.603Z,22.10
2022-09-13T06:15:42.637Z,16.27
2022-09-13T06:16:18.324Z,14.82
2022-09-13T06:16:53.181Z,14.18
2022-09-13T06:17:27.118Z,18.45
2022-09-13T06:18:00.365Z,17.35
2022-09-13T06:18:36.357Z,14.93
2022-09-13T06:19:09.406Z,14.50
2022-09-13T06:19:42.534Z,18.35
2022-09-13T06:20:18.746Z,16.05
2022-09-13T06:20:52.606Z,16.13
2022-09-13T06:21:29.480Z,14.02
2022-09-13T06:22:03.819Z,13.60
2022-09-13T06:22:37.897Z,20.42
2022-09-13T06:23:12.472Z,17.40
2022-09-13T06:23:47.039Z,20.90
2022-09-13T06:24:23.321Z,13.35
2022-09-13T06:24:57.453Z,17.27
2022-09-13T06:25:32.384Z,15.05
2022-09-13T06:26:07.775Z,17.63
2022-09-13T06:26:42.243Z,14.88
2022-09-13T06:27:16.555Z,18.02
2022-09-13T06:27:52.442Z,20.27
2022-09-13T06:28:26.766Z,17.45
2022-09-13T06:29:01.011Z,15.60
2022-09-13T06:29:36.465Z,18.77
2022-09-13T06:30:13.731Z,16.10
2022-09-13T06:30:48.213Z,15.68
2022-09-13T06:31:23.899Z,14.40
2022-09-13T06:31:58.810Z,15.48
2022-09-13T06:32:34.287Z,19.33
2022-09-13T06:33:07.686Z,17.05
2022-09-13T06:33:45.269Z,14.82
2022-09-13T06:34:19.911Z,17.58
2022-09-13T06:34:53.619Z,15.25
2022-09-13T06:35:28.741Z,19.20
2022-09-13T06:36:03.796Z,16.10
2022-09-13T06:36:39.809Z,15.73
2022-09-13T06:37:15.535Z,16.75
2022-09-13T06:37:49.102Z,16.33
2022-09-13T06:38:23.227Z,15.25
2022-09-13T06:39:01.115Z,13.70
2022-09-13T06:39:35.857Z,15.68
2022-09-13T06:40:11.199Z,16.23
2022-09-13T06:40:46.116Z,17.60
2022-09-13T06:41:21.105Z,16.80
2022-09-13T06:41:55.213Z,15.32
2022-09-13T06:42:41.468Z,17.52
2022-09-13T06:43:16.400Z,13.90
2022-09-13T06:43:53.898Z,16.63
2022-09-13T06:44:29.953Z,14.85
2022-09-13T06:45:03.571Z,16.02
2022-09-13T06:45:38.625Z,24.15
2022-09-13T06:46:14.264Z,18.70
2022-09-13T06:46:48.837Z,17.77
2022-09-13T06:47:25.457Z,17.83
2022-09-13T06:48:00.754Z,20.08
2022-09-13T06:48:37.036Z,16.98
2022-09-13T06:49:10.906Z,14.32
2022-09-13T06:49:45.041Z,13.75
2022-09-13T06:50:18.471Z,18.33
2022-09-13T06:50:52.260Z,12.10
2022-09-13T06:51:27.753Z,20.23
2022-09-13T06:52:04.806Z,17.15
2022-09-13T06:52:40.175Z,15.68
2022-09-13T06:53:13.838Z,15.73
2022-09-13T06:53:50.709Z,13.90
2022-09-13T06:54:24.827Z,13.65
2022-09-13T06:54:59.880Z,14.23
2022-09-13T06:55:34.398Z,15.60
2022-09-13T06:56:10.130Z,18.42
2022-09-13T06:56:44.151Z,22.13
2022-09-13T06:57:19.074Z,25.25
2022-09-13T06:57:54.121Z,19.42
2022-09-13T06:58:30.099Z,21.48
2022-09-13T06:59:06.365Z,15.77
2022-09-13T06:59:41.579Z,13.63
2022-09-13T07:00:18.971Z,17.17
2022-09-13T07:00:56.138Z,14.82
2022-09-13T07:01:31.091Z,16.25
2022-09-13T07:02:06.481Z,11.88
2022-09-13T07:02:40.978Z,13.05
2022-09-13T07:03:15.197Z,16.70
2022-09-13T07:03:51.313Z,13.30
2022-09-13T07:04:26.989Z,16.90
2022-09-13T07:05:03.004Z,12.90
2022-09-13T07:05:38.110Z,17.73
2022-09-13T07:06:13.882Z,12.32
2022-09-13T07:06:50.041Z,13.90
2022-09-13T07:07:26.353Z,13.85
2022-09-13T07:07:59.909Z,14.70
2022-09-13T07:08:34.820Z,14.25
2022-09-13T07:09:10.666Z,17.17
2022-09-13T07:09:46.195Z,14.70
2022-09-13T07:10:20.266Z,13.18
2022-09-13T07:10:58.901Z,13.52
2022-09-13T07:11:37.017Z,18.88
2022-09-13T07:12:10.685Z,14.10
2022-09-13T07:12:45.392Z,21.35
2022-09-13T07:13:21.541Z,15.68
2022-09-13T07:13:57.067Z,20.75
2022-09-13T07:14:33.623Z,16.17
2022-09-13T07:15:09.410Z,18.50
2022-09-13T07:15:44.736Z,19.17
2022-09-13T07:16:19.913Z,16.70
2022-09-13T07:16:55.035Z,14.30
2022-09-13T07:17:31.788Z,17.13
2022-09-13T07:18:06.952Z,20.45
2022-09-13T07:18:41.116Z,15.25
2022-09-13T07:19:17.183Z,15.18
2022-09-13T07:19:51.263Z,19.33
2022-09-13T07:20:26.040Z,14.00
2022-09-13T07:21:03.805Z,17.23
2022-09-13T07:21:38.439Z,22.75
2022-09-13T07:22:13.821Z,14.07
2022-09-13T07:22:50.360Z,12.90
2022-09-13T07:23:25.031Z,19.20
2022-09-13T07:23:59.505Z,11.55
2022-09-13T07:24:34.754Z,15.43
2022-09-13T07:25:12.301Z,13.75
2022-09-13T07:25:55.180Z,16.48
2022-09-13T07:26:29.778Z,18.13
2022-09-13T07:27:05.727Z,16.52
2022-09-13T07:27:40.277Z,21.02
2022-09-13T07:28:14.194Z,13.40
2022-09-13T07:28:49.388Z,17.20
2022-09-13T07:29:24.516Z,25.02
2022-09-13T07:29:59.737Z,15.13
2022-09-13T07:30:35.203Z,18.33
2022-09-13T07:31:10.476Z,20.08
2022-09-13T07:31:47.075Z,19.40
2022-09-13T07:32:21.547Z,18.98
2022-09-13T07:32:55.591Z,19.02
2022-09-13T07:33:31.429Z,16.05
2022-09-13T07:34:05.864Z,18.35
2022-09-13T07:34:42.232Z,18.10
2022-09-13T07:35:17.072Z,16.33
2022-09-13T07:35:56.322Z,13.65
2022-09-13T07:36:32.385Z,16.13
2022-09-13T07:37:08.257Z,19.00
2022-09-13T07:37:45.982Z,18.38
2022-09-13T07:38:21.565Z,12.18
2022-09-13T07:38:56.463Z,16.42
2022-09-13T07:39:31.102Z,17.63
2022-09-13T07:40:06.298Z,15.82
2022-09-13T07:40:40.987Z,16.30
2022-09-13T07:41:16.426Z,12.43
2022-09-13T07:41:50.519Z,11.93
2022-09-13T07:42:26.179Z,19.83
2022-09-13T07:43:01.005Z,16.00
2022-09-13T07:43:35.748Z,13.75
2022-09-13T07:44:10.413Z,18.42
2022-09-13T07:44:46.169Z,25.73
2022-09-13T07:45:22.213Z,21.40
2022-09-13T07:46:01.557Z,18.15
2022-09-13T07:46:38.590Z,27.85
2022-09-13T07:47:14.939Z,14.90
2022-09-13T07:47:49.577Z,12.70
2022-09-13T07:48:23.812Z,13.10
2022-09-13T07:48:59.106Z,13.35
2022-09-13T07:49:33.217Z,13.25
2022-09-13T07:50:09.532Z,13.77
2022-09-13T07:50:44.052Z,17.52
2022-09-13T07:51:20.743Z,14.82
2022-09-13T07:51:55.543Z,13.20
2022-09-13T07:52:30.292Z,11.35
2022-09-13T07:53:05.167Z,16.00
2022-09-13T07:53:42.651Z,15.85
2022-09-13T07:54:17.068Z,18.92